createdAt,value
2023-04-15T04:02:06.760Z,5.50
2023-04-15T04:04:38.500Z,5.40
2023-04-15T04:09:47.437Z,5.30
2023-04-15T04:12:19.193Z,5.30
2023-04-15T04:14:50.791Z,5.30
2023-04-15T04:17:23.866Z,5.30
2023-04-15T04:19:55.481Z,5.30
2023-04-15T04:30:03.525Z,5.30
2023-04-15T04:32:36.551Z,5.40
2023-04-15T04:35:09.022Z,5.40
2023-04-15T04:40:13.225Z,5.30
2023-04-15T04:42:44.861Z,5.30
2023-04-15T04:45:16.486Z,5.30
2023-04-15T04:47:49.474Z,5.20
2023-04-15T04:50:21.142Z,5.20
2023-04-15T04:52:52.782Z,5.20
2023-04-15T04:55:24.382Z,5.20
2023-04-15T04:57:56.003Z,5.20
2023-04-15T05:00:27.597Z,5.20
2023-04-15T05:03:00.776Z,5.20
2023-04-15T05:05:32.531Z,5.20
2023-04-15T05:08:04.481Z,5.30
2023-04-15T05:10:36.392Z,5.30
2023-04-15T05:13:08.015Z,5.40
2023-04-15T05:15:39.658Z,5.40
2023-04-15T05:18:12.750Z,5.50
2023-04-15T05:20:44.364Z,5.60
2023-04-15T05:23:16.024Z,5.80
2023-04-15T05:25:47.617Z,5.90
2023-04-15T05:28:19.230Z,6.20
2023-04-15T05:30:50.903Z,6.50
2023-04-15T05:33:23.893Z,6.80
2023-04-15T05:35:55.509Z,7.10
2023-04-15T05:38:27.137Z,7.40
2023-04-15T05:40:58.786Z,7.90
2023-04-15T05:43:30.428Z,8.40
2023-04-15T05:46:02.109Z,9.30
2023-04-15T05:48:35.068Z,8.80
2023-04-15T05:51:06.704Z,9.10
2023-04-15T05:53:38.320Z,9.50
2023-04-15T05:56:09.985Z,10.20
2023-04-15T05:58:41.591Z,11.00
2023-04-15T06:01:13.194Z,11.90
2023-04-15T06:03:46.291Z,13.10
2023-04-15T06:06:17.984Z,13.50
2023-04-15T06:08:49.580Z,13.80
2023-04-15T06:11:21.247Z,13.20
2023-04-15T06:13:52.834Z,12.80
2023-04-15T06:16:24.580Z,12.70
2023-04-15T06:18:57.575Z,12.50
2023-04-15T06:21:29.498Z,12.00
2023-04-15T06:26:33.228Z,10.90
2023-04-15T06:29:04.817Z,10.60
2023-04-15T06:31:36.574Z,10.40
2023-04-15T06:34:09.544Z,10.10
2023-04-15T06:36:41.167Z,10.20
2023-04-15T06:39:12.784Z,10.20
2023-04-15T06:41:44.404Z,10.30
2023-04-15T06:44:16.022Z,10.40
2023-04-15T06:46:47.653Z,10.40
2023-04-15T06:49:20.635Z,10.40
2023-04-15T06:51:52.287Z,10.50
2023-04-15T06:54:23.884Z,10.60
2023-04-15T06:56:55.489Z,10.60
2023-04-15T06:59:27.080Z,10.50
2023-04-15T07:01:58.752Z,10.90
2023-04-15T07:04:31.829Z,10.90
2023-04-15T07:07:03.541Z,11.40
2023-04-15T07:09:35.163Z,11.80
2023-04-15T07:12:06.766Z,12.20
2023-04-15T07:14:38.374Z,12.50
2023-04-15T07:19:43.491Z,12.80
2023-04-15T07:22:15.159Z,12.80
2023-04-15T07:24:46.813Z,12.80
2023-04-15T07:27:18.481Z,12.90
2023-04-15T07:29:50.094Z,12.90
2023-04-15T07:32:21.733Z,13.10
2023-04-15T07:34:54.769Z,13.40
2023-04-15T07:37:26.380Z,13.80
2023-04-15T07:39:58.009Z,14.20
2023-04-15T07:42:29.644Z,14.40
2023-04-15T07:45:01.341Z,14.40
2023-04-15T07:47:33.035Z,13.90
2023-04-15T07:50:06.753Z,14.00
2023-04-15T07:52:38.549Z,14.30
2023-04-15T07:55:10.285Z,13.90
2023-04-15T07:57:41.891Z,13.90
2023-04-15T08:00:14.679Z,13.90
2023-04-15T08:02:46.457Z,14.00
2023-04-15T08:05:19.847Z,14.20
2023-04-15T08:07:51.543Z,14.40
2023-04-15T08:10:23.182Z,14.10
2023-04-15T08:12:54.784Z,13.90
2023-04-15T08:15:26.448Z,13.80
2023-04-15T08:17:58.068Z,13.70
2023-04-15T08:20:31.130Z,13.60
2023-04-15T08:23:02.826Z,13.60
2023-04-15T08:25:34.585Z,13.70
2023-04-15T08:28:06.218Z,13.60
2023-04-15T08:30:37.873Z,13.50
2023-04-15T08:33:09.489Z,13.50
2023-04-15T08:35:42.487Z,13.30
2023-04-15T08:38:14.131Z,12.90
2023-04-15T08:40:45.962Z,13.00
2023-04-15T08:43:20.945Z,13.00
2023-04-15T08:45:52.779Z,13.20
2023-04-15T08:48:24.620Z,13.20
2023-04-15T08:50:57.599Z,13.30
2023-04-15T08:53:29.704Z,13.30
2023-04-15T08:56:03.052Z,13.10
2023-04-15T08:58:35.534Z,13.00
2023-04-15T09:01:07.169Z,13.10
2023-04-15T09:03:39.080Z,13.20
2023-04-15T09:06:12.078Z,12.80
2023-04-15T09:08:43.723Z,12.70
2023-04-15T09:11:15.367Z,12.60
2023-04-15T09:13:46.982Z,12.40
2023-04-15T09:16:18.698Z,12.70
2023-04-15T09:18:50.471Z,12.70
2023-04-15T09:21:23.421Z,12.90
2023-04-15T09:23:55.700Z,13.00
2023-04-15T09:26:34.333Z,12.90
2023-04-15T09:29:06.420Z,13.10
2023-04-15T09:31:38.081Z,13.10
2023-04-15T09:34:09.753Z,13.10
2023-04-15T09:37:00.953Z,13.30
2023-04-15T09:39:48.494Z,13.60
2023-04-15T09:42:20.223Z,13.20
2023-04-15T09:44:51.897Z,12.80
2023-04-15T09:47:30.015Z,12.60
2023-04-15T09:50:01.945Z,12.60
2023-04-15T09:52:35.822Z,12.60
2023-04-15T09:55:07.869Z,12.70
2023-04-15T09:57:39.880Z,12.90
2023-04-15T10:00:12.107Z,13.20
2023-04-15T10:02:44.008Z,13.40
2023-04-15T10:05:15.845Z,13.70
2023-04-15T10:07:48.794Z,13.80
2023-04-15T10:10:20.497Z,13.90
2023-04-15T10:12:52.092Z,13.80
2023-04-15T10:15:23.701Z,13.90
2023-04-15T10:17:55.383Z,14.30
2023-04-15T10:20:27.119Z,13.60
2023-04-15T10:23:00.119Z,13.40
2023-04-15T10:25:31.751Z,13.20
2023-04-15T10:28:03.511Z,13.20
2023-04-15T10:30:35.583Z,13.30
2023-04-15T10:33:07.644Z,13.40
2023-04-15T10:35:39.301Z,13.20
2023-04-15T10:38:34.954Z,13.40
2023-04-15T10:41:17.960Z,13.30
2023-04-15T10:43:52.692Z,13.30
2023-04-15T10:46:25.159Z,13.40
2023-04-15T10:48:56.781Z,13.40
2023-04-15T10:51:29.886Z,13.30
2023-04-15T10:54:02.838Z,13.30
2023-04-15T10:56:34.473Z,13.50
2023-04-15T10:59:06.103Z,13.90
2023-04-15T11:01:50.971Z,14.30
2023-04-15T11:04:54.133Z,14.60
2023-04-15T11:07:50.369Z,14.50
2023-04-15T11:10:53.453Z,14.20
2023-04-15T11:13:26.085Z,14.30
2023-04-15T11:15:58.612Z,14.30
2023-04-15T11:18:31.271Z,14.30
2023-04-15T11:21:04.565Z,14.30
2023-04-15T11:23:37.844Z,14.10
2023-04-15T11:26:10.990Z,13.70
2023-04-15T11:28:45.465Z,13.60
2023-04-15T11:31:18.146Z,13.80
2023-04-15T11:33:54.605Z,13.60
2023-04-15T11:36:26.536Z,13.70
2023-04-15T11:38:58.610Z,13.80
2023-04-15T11:41:31.589Z,13.70
2023-04-15T11:44:03.331Z,13.60
2023-04-15T11:46:35.088Z,13.50
2023-04-15T11:49:06.701Z,13.70
2023-04-15T11:51:38.390Z,13.70
2023-04-15T11:54:10.017Z,13.30
2023-04-15T11:56:42.979Z,13.30
2023-04-15T11:59:14.566Z,13.40
2023-04-15T12:01:46.322Z,13.40
2023-04-15T12:04:19.015Z,13.30
2023-04-15T12:06:52.294Z,13.40
2023-04-15T12:09:23.911Z,13.20
2023-04-15T12:11:58.354Z,13.40
2023-04-15T12:14:30.380Z,13.60
2023-04-15T12:17:02.961Z,13.80
2023-04-15T12:19:35.953Z,13.70
2023-04-15T12:22:09.956Z,13.60
2023-04-15T12:24:42.103Z,13.20
2023-04-15T12:27:15.958Z,13.10
2023-04-15T12:29:47.587Z,12.90
2023-04-15T12:32:19.290Z,12.90
2023-04-15T12:34:51.752Z,12.70
2023-04-15T12:37:23.386Z,12.70
2023-04-15T12:39:54.997Z,12.70
2023-04-15T12:42:27.945Z,12.70
2023-04-15T12:44:59.564Z,12.60
2023-04-15T12:47:31.322Z,12.60
2023-04-15T12:50:03.164Z,12.80
2023-04-15T12:52:34.831Z,12.60
2023-04-15T12:55:07.068Z,12.60
2023-04-15T12:57:40.068Z,12.50
2023-04-15T13:00:12.697Z,12.40
2023-04-15T13:02:44.620Z,12.20
2023-04-15T13:05:16.365Z,12.00
2023-04-15T13:07:47.988Z,11.90
2023-04-15T13:10:19.591Z,11.90
2023-04-15T13:12:52.572Z,11.90
2023-04-15T14:21:34.630Z,11.80
2023-04-15T14:24:06.455Z,11.80
2023-04-15T14:26:38.075Z,12.10
2023-04-15T14:29:11.046Z,12.10
2023-04-15T14:31:42.749Z,12.10
2023-04-15T14:34:34.370Z,12.10
2023-04-15T14:37:05.997Z,12.20
2023-04-15T14:39:37.623Z,12.20
2023-04-15T14:42:09.246Z,12.30
2023-04-15T14:44:42.207Z,12.00
2023-04-15T14:47:13.835Z,11.80
2023-04-15T14:49:45.435Z,11.60
2023-04-15T14:52:17.305Z,11.60
2023-04-15T14:54:48.901Z,11.60
2023-04-15T14:57:20.553Z,11.40
2023-04-15T14:59:53.496Z,11.30
2023-04-15T15:02:37.160Z,11.30
2023-04-15T15:05:10.554Z,11.40
2023-04-15T15:07:42.277Z,11.50
2023-04-15T15:10:13.868Z,11.80
2023-04-15T15:12:45.500Z,11.90
2023-04-15T15:15:28.476Z,12.00
2023-04-15T15:18:00.896Z,12.10
2023-04-15T15:20:32.580Z,12.10
2023-04-15T15:23:04.215Z,11.80
2023-04-15T15:25:35.851Z,11.90
2023-04-15T15:28:07.481Z,11.60
2023-04-15T15:30:40.435Z,11.80
2023-04-15T15:33:12.041Z,11.40
2023-04-15T15:35:44.027Z,11.40
2023-04-15T15:38:15.668Z,11.40
2023-04-15T15:40:47.283Z,11.40
2023-04-15T15:43:18.949Z,11.40
2023-04-15T15:45:51.880Z,11.30
2023-04-15T15:48:23.670Z,11.20
2023-04-15T15:50:55.267Z,11.20
2023-04-15T15:53:26.920Z,11.10
2023-04-15T15:55:58.553Z,11.10
2023-04-15T15:58:30.286Z,11.30
2023-04-15T16:01:03.259Z,11.00
2023-04-15T16:03:35.004Z,10.90
2023-04-15T16:06:06.859Z,10.80
2023-04-15T16:08:38.518Z,10.80
2023-04-15T16:11:10.228Z,10.80
2023-04-15T16:13:41.844Z,10.70
2023-04-15T16:16:14.934Z,10.70
2023-04-15T16:18:46.543Z,10.70
2023-04-15T16:21:18.163Z,10.60
2023-04-15T16:23:49.768Z,10.60
2023-04-15T18:00:16.690Z,10.20
2023-04-15T18:02:49.872Z,10.30
2023-04-15T18:05:21.762Z,10.40
2023-04-15T18:07:53.448Z,10.10
2023-04-15T18:10:25.117Z,10.00
2023-04-15T18:12:56.755Z,10.00
2023-04-15T18:15:28.366Z,10.00
2023-04-15T18:18:01.385Z,10.00
2023-04-15T18:20:33.029Z,9.90
2023-04-15T18:23:04.652Z,9.90
2023-04-15T18:25:36.263Z,10.00
2023-04-15T18:28:07.884Z,10.00
2023-04-15T18:30:39.477Z,9.80
2023-04-15T18:33:12.435Z,9.70
2023-04-15T18:35:44.059Z,9.60
2023-04-15T18:38:15.693Z,9.60
2023-04-15T18:40:47.305Z,9.40
2023-04-15T18:43:19.266Z,9.30
2023-04-15T18:45:51.341Z,9.30
2023-04-15T18:48:25.977Z,9.30
2023-04-15T18:50:57.607Z,9.20
2023-04-15T18:53:29.235Z,9.10
2023-04-15T18:56:00.878Z,9.10
2023-04-15T18:59:26.917Z,9.00
2023-04-15T19:01:24.187Z,9.00
2023-04-15T19:03:57.271Z,9.10
2023-04-15T19:06:28.907Z,8.80
2023-04-15T19:09:00.536Z,9.00
2023-04-15T19:11:32.123Z,9.00
2023-04-15T19:14:03.737Z,9.00
2023-04-15T19:16:35.358Z,9.00
2023-04-15T19:19:08.340Z,9.10
2023-04-15T19:21:40.019Z,8.90
2023-04-15T19:24:11.652Z,8.90
2023-04-15T19:29:15.567Z,8.70
2023-04-15T19:31:47.181Z,8.70
2023-04-15T19:34:20.126Z,8.70
2023-04-15T19:36:51.810Z,8.70
2023-04-15T19:39:23.679Z,8.70
2023-04-15T19:41:55.465Z,8.70
2023-04-15T19:46:59.173Z,8.60
2023-04-15T19:49:32.130Z,8.70
2023-04-15T19:52:03.796Z,8.60
2023-04-15T19:54:35.407Z,8.60
2023-04-15T19:57:07.023Z,8.60
2023-04-15T19:59:38.622Z,8.50
2023-04-15T20:02:10.350Z,8.50
2023-04-15T20:04:43.848Z,8.50
2023-04-15T20:07:15.579Z,8.50
2023-04-15T20:12:50.673Z,8.50
2023-04-15T20:15:12.340Z,8.40
2023-04-15T20:20:17.425Z,8.40
2023-04-15T20:22:49.039Z,8.40
2023-04-15T20:27:52.671Z,8.40
2023-04-15T20:30:24.728Z,8.40
2023-04-15T20:32:56.387Z,8.40
2023-04-15T20:35:29.392Z,8.40
2023-04-15T20:38:01.120Z,8.40
2023-04-15T20:40:32.759Z,8.40
2023-04-15T20:45:36.342Z,8.40
2023-04-15T20:48:08.042Z,8.30
2023-04-15T20:50:41.041Z,8.30
2023-04-15T20:53:12.685Z,8.30
2023-04-15T20:55:44.298Z,8.30
2023-04-15T20:58:15.935Z,8.40
2023-04-15T21:00:47.588Z,8.30
2023-04-15T21:03:19.345Z,8.30
2023-04-15T21:05:52.393Z,8.30
2023-04-15T21:08:24.023Z,8.30
2023-04-15T21:10:55.828Z,8.30
2023-04-15T21:13:27.447Z,8.30
2023-04-15T21:15:59.086Z,8.20
2023-04-15T21:18:30.766Z,8.20
2023-04-15T21:21:03.979Z,8.20
2023-04-15T21:23:36.311Z,8.10
2023-04-15T21:26:07.913Z,8.20
2023-04-15T21:31:11.526Z,8.20
2023-04-15T21:33:43.155Z,8.20
2023-04-15T21:36:16.092Z,8.20
2023-04-15T21:38:47.700Z,8.20
2023-04-15T21:41:19.296Z,8.10
2023-04-15T21:43:50.928Z,8.20
2023-04-15T21:46:25.546Z,8.20
2023-04-15T21:51:30.817Z,8.00
2023-04-15T21:54:02.477Z,8.10
2023-04-15T21:56:34.117Z,8.20
